Map

Track Data

SID SEASON NUMBER BASIN SUBBASIN NAME ISO_TIME NATURE LAT LON WMO_WIND WMO_PRES WMO_AGENCY TRACK_TYPE DIST2LAND LANDFALL IFLAG USA_AGENCY USA_ATCF_ID USA_LAT USA_LON USA_RECORD USA_STATUS USA_WIND USA_PRES USA_SSHS USA_R34_NE USA_R34_SE USA_R34_SW USA_R34_NW USA_R50_NE USA_R50_SE USA_R50_SW USA_R50_NW USA_R64_NE USA_R64_SE USA_R64_SW USA_R64_NW USA_POCI USA_ROCI USA_RMW USA_EYE TOKYO_LAT TOKYO_LON TOKYO_GRADE TOKYO_WIND TOKYO_PRES TOKYO_R50_DIR TOKYO_R50_LONG TOKYO_R50_SHORT TOKYO_R30_DIR TOKYO_R30_LONG TOKYO_R30_SHORT TOKYO_LAND CMA_LAT CMA_LON CMA_CAT CMA_WIND CMA_PRES HKO_LAT HKO_LON HKO_CAT HKO_WIND HKO_PRES NEWDELHI_LAT NEWDELHI_LON NEWDELHI_GRADE NEWDELHI_WIND NEWDELHI_PRES NEWDELHI_CI NEWDELHI_DP NEWDELHI_POCI REUNION_LAT REUNION_LON REUNION_TYPE REUNION_WIND REUNION_PRES REUNION_TNUM REUNION_CI REUNION_RMW REUNION_R34_NE REUNION_R34_SE REUNION_R34_SW REUNION_R34_NW REUNION_R50_NE REUNION_R50_SE REUNION_R50_SW REUNION_R50_NW REUNION_R64_NE REUNION_R64_SE REUNION_R64_SW REUNION_R64_NW BOM_LAT BOM_LON BOM_TYPE BOM_WIND BOM_PRES BOM_TNUM BOM_CI BOM_RMW BOM_R34_NE BOM_R34_SE BOM_R34_SW BOM_R34_NW BOM_R50_NE BOM_R50_SE BOM_R50_SW BOM_R50_NW BOM_R64_NE BOM_R64_SE BOM_R64_SW BOM_R64_NW BOM_ROCI BOM_POCI BOM_EYE BOM_POS_METHOD BOM_PRES_METHOD NADI_LAT NADI_LON NADI_CAT NADI_WIND NADI_PRES WELLINGTON_LAT WELLINGTON_LON WELLINGTON_WIND WELLINGTON_PRES DS824_LAT DS824_LON DS824_STAGE DS824_WIND DS824_PRES TD9636_LAT TD9636_LON TD9636_STAGE TD9636_WIND TD9636_PRES TD9635_LAT TD9635_LON TD9635_WIND TD9635_PRES TD9635_ROCI NEUMANN_LAT NEUMANN_LON NEUMANN_CLASS NEUMANN_WIND NEUMANN_PRES MLC_LAT MLC_LON MLC_CLASS MLC_WIND MLC_PRES USA_GUST BOM_GUST BOM_GUST_PER REUNION_GUST REUNION_GUST_PER USA_SEAHGT USA_SEARAD_NE USA_SEARAD_SE USA_SEARAD_SW USA_SEARAD_NW STORM_SPEED STORM_DIR
1944232N20275 1944 52 NA CS NOT_NAMED 1944-08-18 12:00:00 TS 20.5000 -85.0000 25 hurdat_atl main 146 129 O_____________ hurdat_atl AL051944 20.5000 -85.0000 TD 25 -1 7 305
1944232N20275 1944 52 NA CS NOT_NAMED 1944-08-18 15:00:00 TS 20.7001 -85.2998 main 133 116 P_____________ AL051944 20.7001 -85.2998 TD 25 -1 7 306
1944232N20275 1944 52 NA CS NOT_NAMED 1944-08-18 18:00:00 TS 20.9000 -85.6000 25 hurdat_atl main 116 82 O_____________ hurdat_atl AL051944 20.9000 -85.6000 TD 25 -1 7 305
1944232N20275 1944 52 NA CS NOT_NAMED 1944-08-18 21:00:00 TS 21.0999 -85.9001 main 82 56 P_____________ AL051944 21.0999 -85.9001 TD 27 -1 7 306
1944232N20275 1944 52 NA CS NOT_NAMED 1944-08-19 00:00:00 TS 21.3000 -86.2000 30 hurdat_atl main 56 38 O_____________ hurdat_atl AL051944 21.3000 -86.2000 TD 30 -1 7 306
1944232N20275 1944 52 NA CS NOT_NAMED 1944-08-19 03:00:00 TS 21.5074 -86.4926 main 38 30 P_____________ AL051944 21.5074 -86.4926 TD 30 -1 7 306
1944232N20275 1944 52 NA GM NOT_NAMED 1944-08-19 06:00:00 TS 21.7000 -86.8000 30 hurdat_atl main 30 24 O_____________ hurdat_atl AL051944 21.7000 -86.8000 TD 30 -1 7 300
1944232N20275 1944 52 NA GM NOT_NAMED 1944-08-19 09:00:00 TS 21.8574 -87.1351 main 44 44 P_____________ AL051944 21.8574 -87.1351 TD 30 -1 7 295
1944232N20275 1944 52 NA GM NOT_NAMED 1944-08-19 12:00:00 TS 22.0000 -87.5000 30 hurdat_atl main 59 56 O_____________ hurdat_atl AL051944 22.0000 -87.5000 TD 30 -1 8 293
1944232N20275 1944 52 NA GM NOT_NAMED 1944-08-19 15:00:00 TS 22.1499 -87.8851 main 67 67 P_____________ AL051944 22.1499 -87.8851 TD 32 -1 8 292
1944232N20275 1944 52 NA GM NOT_NAMED 1944-08-19 18:00:00 TS 22.3000 -88.3000 35 hurdat_atl main 89 89 O_____________ hurdat_atl AL051944 22.3000 -88.3000 TS 35 0 8 291
1944232N20275 1944 52 NA GM NOT_NAMED 1944-08-19 21:00:00 TS 22.4499 -88.7426 main 101 101 P_____________ AL051944 22.4499 -88.7426 TS 35 0 9 290
1944232N20275 1944 52 NA GM NOT_NAMED 1944-08-20 00:00:00 TS 22.6000 -89.2000 35 hurdat_atl main 137 137 O_____________ hurdat_atl AL051944 22.6000 -89.2000 TS 35 0 9 291
1944232N20275 1944 52 NA GM NOT_NAMED 1944-08-20 03:00:00 TS 22.7649 -89.6499 main 170 170 P_____________ AL051944 22.7649 -89.6499 TS 37 0 9 290
1944232N20275 1944 52 NA GM NOT_NAMED 1944-08-20 06:00:00 TS 22.9000 -90.1000 40 hurdat_atl main 191 191 O_____________ hurdat_atl AL051944 22.9000 -90.1000 TS 40 0 9 284
1944232N20275 1944 52 NA GM NOT_NAMED 1944-08-20 09:00:00 TS 22.9724 -90.5501 main 213 213 P_____________ AL051944 22.9724 -90.5501 TS 40 0 8 277
1944232N20275 1944 52 NA GM NOT_NAMED 1944-08-20 12:00:00 TS 23.0000 -91.0000 40 hurdat_atl main 224 224 O_____________ hurdat_atl AL051944 23.0000 -91.0000 TS 40 0 8 272
1944232N20275 1944 52 NA GM NOT_NAMED 1944-08-20 15:00:00 TS 22.9999 -91.4502 main 245 245 P_____________ AL051944 22.9999 -91.4502 TS 42 0 8 270
1944232N20275 1944 52 NA GM NOT_NAMED 1944-08-20 18:00:00 TS 23.0000 -91.9000 45 hurdat_atl main 268 268 O_____________ hurdat_atl AL051944 23.0000 -91.9000 TS 45 0 8 272
1944232N20275 1944 52 NA GM NOT_NAMED 1944-08-20 21:00:00 TS 23.0349 -92.3500 main 303 303 P_____________ AL051944 23.0349 -92.3500 TS 47 0 8 277
1944232N20275 1944 52 NA GM NOT_NAMED 1944-08-21 00:00:00 TS 23.1000 -92.8000 50 hurdat_atl main 341 341 O_____________ hurdat_atl AL051944 23.1000 -92.8000 TS 50 0 8 281
1944232N20275 1944 52 NA GM NOT_NAMED 1944-08-21 03:00:00 TS 23.1924 -93.2575 main 387 387 P_____________ AL051944 23.1924 -93.2575 TS 50 0 9 284
1944232N20275 1944 52 NA GM NOT_NAMED 1944-08-21 06:00:00 TS 23.3000 -93.7000 50 hurdat_atl main 415 377 O_____________ hurdat_atl AL051944 23.3000 -93.7000 TS 50 0 8 284
1944232N20275 1944 52 NA GM NOT_NAMED 1944-08-21 09:00:00 TS 23.3924 -94.1151 main 377 336 P_____________ AL051944 23.3924 -94.1151 TS 50 0 8 285
1944232N20275 1944 52 NA GM NOT_NAMED 1944-08-21 12:00:00 TS 23.5000 -94.5000 50 hurdat_atl main 336 305 O_____________ hurdat_atl AL051944 23.5000 -94.5000 TS 50 0 7 291
1944232N20275 1944 52 NA GM NOT_NAMED 1944-08-21 15:00:00 TS 23.6499 -94.8650 main 295 264 P_____________ AL051944 23.6499 -94.8650 TS 50 0 7 295
1944232N20275 1944 52 NA GM NOT_NAMED 1944-08-21 18:00:00 TS 23.8000 -95.2000 50 hurdat_atl main 264 232 O_____________ hurdat_atl AL051944 23.8000 -95.2000 TS 50 0 6 293
1944232N20275 1944 52 NA GM NOT_NAMED 1944-08-21 21:00:00 TS 23.8999 -95.5077 main 232 200 P_____________ AL051944 23.8999 -95.5077 TS 50 0 6 290
1944232N20275 1944 52 NA GM NOT_NAMED 1944-08-22 00:00:00 TS 24.0000 -95.8000 50 hurdat_atl main 200 168 O_____________ hurdat_atl AL051944 24.0000 -95.8000 TS 50 0 6 294
1944232N20275 1944 52 NA GM NOT_NAMED 1944-08-22 03:00:00 TS 24.1349 -96.0926 main 168 133 P_____________ AL051944 24.1349 -96.0926 TS 50 0 6 299
1944232N20275 1944 52 NA GM NOT_NAMED 1944-08-22 06:00:00 TS 24.3000 -96.4000 50 hurdat_atl main 133 98 O_____________ hurdat_atl AL051944 24.3000 -96.4000 TS 50 0 7 302
1944232N20275 1944 52 NA GM NOT_NAMED 1944-08-22 09:00:00 TS 24.5000 -96.7425 main 98 52 P_____________ AL051944 24.5000 -96.7425 TS 47 0 8 302
1944232N20275 1944 52 NA GM NOT_NAMED 1944-08-22 12:00:00 TS 24.7000 -97.1000 45 hurdat_atl main 52 23 O_____________ hurdat_atl AL051944 24.7000 -97.1000 TS 45 0 7 300
1944232N20275 1944 52 NA GM NOT_NAMED 1944-08-22 15:00:00 TS 24.8573 -97.4352 main 15 0 P_____________ AL051944 24.8573 -97.4352 TS 45 0 7 295
1944232N20275 1944 52 NA NA NOT_NAMED 1944-08-22 18:00:00 TS 25.0000 -97.8000 45 hurdat_atl main 0 0 O_____________ hurdat_atl AL051944 25.0000 -97.8000 TS 45 0 8 292
1944232N20275 1944 52 NA NA NOT_NAMED 1944-08-22 21:00:00 TS 25.1498 -98.2201 main 0 0 P_____________ AL051944 25.1498 -98.2201 TS 40 0 9 290
1944232N20275 1944 52 NA NA NOT_NAMED 1944-08-23 00:00:00 TS 25.3000 -98.7000 35 hurdat_atl main 0 0 O_____________ hurdat_atl AL051944 25.3000 -98.7000 TS 35 0 10 288
1944232N20275 1944 52 NA NA NOT_NAMED 1944-08-23 03:00:00 TS 25.4505 -99.2347 main 0 0 P_____________ AL051944 25.4505 -99.2347 TS 30 -1 10 287
1944232N20275 1944 52 NA NA NOT_NAMED 1944-08-23 06:00:00 TS 25.6000 -99.8000 25 hurdat_atl main 0 O_____________ hurdat_atl AL051944 25.6000 -99.8000 TD 25 -1 11 286

About IBTrACS Database

This database is a web-friendly format of International Best Track Archive for Climate Stewardship (IBTrACS), a global best track data archive curated by NOAA dating back to 1842.

Updated: 2021-12-06